sensor_id;sensor_type;location;lat;lon;timestamp;pressure;altitude;pressure_sealevel;temperature;humidity
6851;BME280;3464;42.728;23.296;2024-03-17T00:00:07;95470.58;;;19.31;42.51
6851;BME280;3464;42.728;23.296;2024-03-17T00:02:35;95472.49;;;19.59;41.84
6851;BME280;3464;42.728;23.296;2024-03-17T00:05:08;95459.70;;;19.78;41.56
6851;BME280;3464;42.728;23.296;2024-03-17T00:07:35;95465.09;;;19.83;41.43
6851;BME280;3464;42.728;23.296;2024-03-17T00:10:09;95461.97;;;19.72;41.78
6851;BME280;3464;42.728;23.296;2024-03-17T00:12:37;95460.13;;;19.77;41.53
6851;BME280;3464;42.728;23.296;2024-03-17T00:15:06;95463.50;;;19.78;41.69
6851;BME280;3464;42.728;23.296;2024-03-17T00:17:36;95463.98;;;19.76;41.40
6851;BME280;3464;42.728;23.296;2024-03-17T00:20:04;95461.33;;;19.80;41.60
6851;BME280;3464;42.728;23.296;2024-03-17T00:22:33;95463.20;;;19.55;41.85
6851;BME280;3464;42.728;23.296;2024-03-17T00:25:00;95457.47;;;18.42;43.45
6851;BME280;3464;42.728;23.296;2024-03-17T00:27:28;95465.09;;;18.66;43.19
6851;BME280;3464;42.728;23.296;2024-03-17T00:29:56;95458.87;;;18.33;43.53
6851;BME280;3464;42.728;23.296;2024-03-17T00:32:25;95468.56;;;17.64;44.97
6851;BME280;3464;42.728;23.296;2024-03-17T00:34:53;95465.22;;;17.30;45.93
6851;BME280;3464;42.728;23.296;2024-03-17T00:37:21;95461.70;;;17.67;44.97
6851;BME280;3464;42.728;23.296;2024-03-17T00:39:49;95466.03;;;18.13;44.19
6851;BME280;3464;42.728;23.296;2024-03-17T00:42:19;95471.55;;;17.33;45.70
6851;BME280;3464;42.728;23.296;2024-03-17T00:44:47;95464.20;;;17.42;45.82
6851;BME280;3464;42.728;23.296;2024-03-17T00:47:16;95462.71;;;17.83;45.01
6851;BME280;3464;42.728;23.296;2024-03-17T00:49:44;95468.48;;;17.38;46.14
6851;BME280;3464;42.728;23.296;2024-03-17T00:52:12;95474.73;;;17.49;46.01
6851;BME280;3464;42.728;23.296;2024-03-17T00:54:40;95473.79;;;16.91;46.70
6851;BME280;3464;42.728;23.296;2024-03-17T00:57:08;95470.62;;;17.06;46.73
6851;BME280;3464;42.728;23.296;2024-03-17T00:59:38;95474.17;;;17.27;46.54
6851;BME280;3464;42.728;23.296;2024-03-17T01:02:06;95467.39;;;18.09;44.93
6851;BME280;3464;42.728;23.296;2024-03-17T01:04:33;95463.28;;;18.25;44.37
6851;BME280;3464;42.728;23.296;2024-03-17T01:07:01;95465.45;;;18.21;44.31
6851;BME280;3464;42.728;23.296;2024-03-17T01:09:30;95469.45;;;18.60;43.71
6851;BME280;3464;42.728;23.296;2024-03-17T01:11:58;95467.46;;;18.75;43.44
6851;BME280;3464;42.728;23.296;2024-03-17T01:14:27;95465.98;;;19.06;42.66
6851;BME280;3464;42.728;23.296;2024-03-17T01:16:56;95466.02;;;18.62;43.15
6851;BME280;3464;42.728;23.296;2024-03-17T01:19:24;95466.28;;;18.48;43.68
6851;BME280;3464;42.728;23.296;2024-03-17T01:21:52;95472.81;;;18.84;43.01
6851;BME280;3464;42.728;23.296;2024-03-17T01:24:20;95469.89;;;18.80;43.17
6851;BME280;3464;42.728;23.296;2024-03-17T01:26:48;95471.11;;;18.84;42.96
6851;BME280;3464;42.728;23.296;2024-03-17T01:29:15;95468.91;;;18.44;43.38
6851;BME280;3464;42.728;23.296;2024-03-17T01:31:43;95462.79;;;18.75;42.80
6851;BME280;3464;42.728;23.296;2024-03-17T01:34:11;95460.67;;;18.28;43.59
6851;BME280;3464;42.728;23.296;2024-03-17T01:36:39;95465.56;;;17.91;44.37
6851;BME280;3464;42.728;23.296;2024-03-17T01:39:06;95472.98;;;18.04;44.14
6851;BME280;3464;42.728;23.296;2024-03-17T01:41:34;95466.97;;;18.09;44.01
6851;BME280;3464;42.728;23.296;2024-03-17T01:44:02;95468.94;;;17.92;44.37
6851;BME280;3464;42.728;23.296;2024-03-17T01:46:30;95468.66;;;18.79;43.00
6851;BME280;3464;42.728;23.296;2024-03-17T01:48:58;95468.72;;;18.06;44.21
6851;BME280;3464;42.728;23.296;2024-03-17T01:51:27;95471.94;;;17.65;45.06
6851;BME280;3464;42.728;23.296;2024-03-17T01:53:55;95467.27;;;18.16;44.35
6851;BME280;3464;42.728;23.296;2024-03-17T01:56:23;95458.21;;;18.23;44.16
6851;BME280;3464;42.728;23.296;2024-03-17T01:58:51;95464.92;;;18.28;43.72
6851;BME280;3464;42.728;23.296;2024-03-17T02:01:21;95468.53;;;18.16;43.82
6851;BME280;3464;42.728;23.296;2024-03-17T02:03:48;95466.39;;;18.17;43.96
6851;BME280;3464;42.728;23.296;2024-03-17T02:06:17;95458.34;;;18.16;43.66
6851;BME280;3464;42.728;23.296;2024-03-17T02:08:50;95461.88;;;18.09;43.88
6851;BME280;3464;42.728;23.296;2024-03-17T02:11:25;95459.05;;;18.00;44.15
6851;BME280;3464;42.728;23.296;2024-03-17T02:13:53;95462.77;;;18.06;44.15
6851;BME280;3464;42.728;23.296;2024-03-17T02:16:20;95455.59;;;18.73;43.19
6851;BME280;3464;42.728;23.296;2024-03-17T02:18:48;95457.47;;;18.65;42.98
6851;BME280;3464;42.728;23.296;2024-03-17T02:21:16;95463.36;;;18.45;43.30
6851;BME280;3464;42.728;23.296;2024-03-17T02:23:44;95463.75;;;18.46;43.18
6851;BME280;3464;42.728;23.296;2024-03-17T02:26:12;95462.73;;;18.56;43.10
6851;BME280;3464;42.728;23.296;2024-03-17T02:28:41;95460.67;;;18.53;43.01
6851;BME280;3464;42.728;23.296;2024-03-17T02:31:10;95458.83;;;18.60;43.08
6851;BME280;3464;42.728;23.296;2024-03-17T02:33:37;95456.25;;;18.62;42.93
6851;BME280;3464;42.728;23.296;2024-03-17T02:36:07;95458.39;;;18.36;43.59
6851;BME280;3464;42.728;23.296;2024-03-17T02:38:35;95450.27;;;18.40;43.72
6851;BME280;3464;42.728;23.296;2024-03-17T02:41:09;95450.75;;;18.60;43.11
6851;BME280;3464;42.728;23.296;2024-03-17T02:43:37;95454.39;;;18.24;43.58
6851;BME280;3464;42.728;23.296;2024-03-17T02:46:05;95453.41;;;18.31;43.68
6851;BME280;3464;42.728;23.296;2024-03-17T02:48:33;95451.13;;;18.41;43.52
6851;BME280;3464;42.728;23.296;2024-03-17T02:51:00;95447.89;;;18.54;43.09
6851;BME280;3464;42.728;23.296;2024-03-17T02:53:29;95451.48;;;18.43;43.14
6851;BME280;3464;42.728;23.296;2024-03-17T02:55:57;95423.74;;;18.72;42.41
6851;BME280;3464;42.728;23.296;2024-03-17T02:58:25;95450.21;;;18.65;42.66
6851;BME280;3464;42.728;23.296;2024-03-17T03:00:53;95452.70;;;18.68;42.76
6851;BME280;3464;42.728;23.296;2024-03-17T03:03:21;95448.63;;;18.61;42.85
6851;BME280;3464;42.728;23.296;2024-03-17T03:05:53;95448.13;;;18.43;43.24
6851;BME280;3464;42.728;23.296;2024-03-17T03:08:21;95443.98;;;18.59;42.93
6851;BME280;3464;42.728;23.296;2024-03-17T03:13:25;95444.44;;;18.57;42.68
6851;BME280;3464;42.728;23.296;2024-03-17T03:15:53;95449.11;;;18.34;42.94
6851;BME280;3464;42.728;23.296;2024-03-17T03:18:20;95451.76;;;18.28;43.18
6851;BME280;3464;42.728;23.296;2024-03-17T03:20:51;95446.67;;;18.28;43.21
6851;BME280;3464;42.728;23.296;2024-03-17T03:23:19;95446.68;;;18.52;43.17
6851;BME280;3464;42.728;23.296;2024-03-17T03:25:47;95452.00;;;18.61;42.83
6851;BME280;3464;42.728;23.296;2024-03-17T03:28:14;95445.59;;;18.63;42.74
6851;BME280;3464;42.728;23.296;2024-03-17T03:30:42;95455.59;;;18.73;42.43
6851;BME280;3464;42.728;23.296;2024-03-17T03:33:10;95450.45;;;18.55;42.89
6851;BME280;3464;42.728;23.296;2024-03-17T03:35:37;95454.95;;;18.16;43.57
6851;BME280;3464;42.728;23.296;2024-03-17T03:38:05;95454.89;;;18.19;43.36
6851;BME280;3464;42.728;23.296;2024-03-17T03:40:33;95455.84;;;18.38;43.03
6851;BME280;3464;42.728;23.296;2024-03-17T03:43:01;95459.09;;;17.44;44.58
6851;BME280;3464;42.728;23.296;2024-03-17T03:45:28;95463.05;;;17.89;43.84
6851;BME280;3464;42.728;23.296;2024-03-17T03:47:58;95454.19;;;17.61;44.15
6851;BME280;3464;42.728;23.296;2024-03-17T03:50:28;95474.16;;;16.96;45.36
6851;BME280;3464;42.728;23.296;2024-03-17T03:52:55;95472.43;;;17.30;44.74
6851;BME280;3464;42.728;23.296;2024-03-17T03:55:26;95473.42;;;16.52;45.76
6851;BME280;3464;42.728;23.296;2024-03-17T03:57:53;95475.81;;;16.98;45.07
6851;BME280;3464;42.728;23.296;2024-03-17T04:00:21;95473.97;;;17.71;43.62
6851;BME280;3464;42.728;23.296;2024-03-17T04:02:51;95472.13;;;17.21;44.15
6851;BME280;3464;42.728;23.296;2024-03-17T04:05:18;95479.83;;;17.17;44.47
6851;BME280;3464;42.728;23.296;2024-03-17T04:07:46;95479.80;;;17.18;44.11
6851;BME280;3464;42.728;23.296;2024-03-17T04:10:15;95482.35;;;16.83;44.82
6851;BME280;3464;42.728;23.296;2024-03-17T04:12:42;95487.25;;;17.61;43.48
6851;BME280;3464;42.728;23.296;2024-03-17T04:15:09;95492.44;;;17.24;43.91
6851;BME280;3464;42.728;23.296;2024-03-17T04:17:37;95487.62;;;17.36;43.59
6851;BME280;3464;42.728;23.296;2024-03-17T04:20:05;95492.91;;;18.06;42.69
6851;BME280;3464;42.728;23.296;2024-03-17T04:22:34;95492.52;;;18.05;42.02
6851;BME280;3464;42.728;23.296;2024-03-17T04:25:02;95490.59;;;18.18;42.12
6851;BME280;3464;42.728;23.296;2024-03-17T04:27:32;95494.97;;;18.11;42.04
6851;BME280;3464;42.728;23.296;2024-03-17T04:29:59;95505.83;;;18.20;42.20
6851;BME280;3464;42.728;23.296;2024-03-17T04:32:27;95503.43;;;18.11;41.98
6851;BME280;3464;42.728;23.296;2024-03-17T04:34:57;95499.86;;;18.22;41.90
6851;BME280;3464;42.728;23.296;2024-03-17T04:37:25;95501.25;;;18.41;41.75
6851;BME280;3464;42.728;23.296;2024-03-17T04:39:53;95507.09;;;17.96;42.43
6851;BME280;3464;42.728;23.296;2024-03-17T04:42:21;95514.62;;;18.27;42.16
6851;BME280;3464;42.728;23.296;2024-03-17T04:44:48;95514.27;;;18.50;41.74
6851;BME280;3464;42.728;23.296;2024-03-17T04:47:15;95516.47;;;18.18;42.08
6851;BME280;3464;42.728;23.296;2024-03-17T04:49:43;95512.92;;;18.28;41.81
6851;BME280;3464;42.728;23.296;2024-03-17T04:52:11;95521.02;;;18.74;41.63
6851;BME280;3464;42.728;23.296;2024-03-17T04:54:38;95521.10;;;18.92;41.17
6851;BME280;3464;42.728;23.296;2024-03-17T04:57:06;95525.58;;;19.23;40.74
6851;BME280;3464;42.728;23.296;2024-03-17T04:59:34;95524.77;;;19.42;40.69
6851;BME280;3464;42.728;23.296;2024-03-17T05:02:01;95530.34;;;19.79;39.87
6851;BME280;3464;42.728;23.296;2024-03-17T05:04:29;95510.80;;;19.95;39.61
6851;BME280;3464;42.728;23.296;2024-03-17T05:06:55;95530.42;;;20.13;39.56
6851;BME280;3464;42.728;23.296;2024-03-17T05:09:22;95532.95;;;20.47;39.12
6851;BME280;3464;42.728;23.296;2024-03-17T05:11:50;95534.11;;;20.84;38.24
6851;BME280;3464;42.728;23.296;2024-03-17T05:14:19;95540.16;;;21.29;37.51
6851;BME280;3464;42.728;23.296;2024-03-17T05:16:49;95537.20;;;21.57;37.36
6851;BME280;3464;42.728;23.296;2024-03-17T05:19:16;95536.16;;;22.05;36.67
6851;BME280;3464;42.728;23.296;2024-03-17T05:21:43;95536.78;;;22.77;35.47
6851;BME280;3464;42.728;23.296;2024-03-17T05:24:09;95542.48;;;23.21;35.16
6851;BME280;3464;42.728;23.296;2024-03-17T05:26:36;95541.02;;;23.72;34.27
6851;BME280;3464;42.728;23.296;2024-03-17T05:29:04;95543.56;;;23.96;34.13
6851;BME280;3464;42.728;23.296;2024-03-17T05:31:32;95545.34;;;24.26;33.66
6851;BME280;3464;42.728;23.296;2024-03-17T05:33:59;95538.55;;;24.03;33.76
6851;BME280;3464;42.728;23.296;2024-03-17T05:36:25;95545.91;;;24.43;32.99
6851;BME280;3464;42.728;23.296;2024-03-17T05:38:52;95548.53;;;24.94;32.39
6851;BME280;3464;42.728;23.296;2024-03-17T05:41:19;95547.02;;;24.58;32.61
6851;BME280;3464;42.728;23.296;2024-03-17T05:43:46;95541.31;;;24.40;32.71
6851;BME280;3464;42.728;23.296;2024-03-17T05:46:12;95547.25;;;24.42;32.94
6851;BME280;3464;42.728;23.296;2024-03-17T05:48:40;95543.73;;;25.35;31.92
6851;BME280;3464;42.728;23.296;2024-03-17T05:51:07;95544.81;;;25.86;31.50
6851;BME280;3464;42.728;23.296;2024-03-17T05:53:33;95541.64;;;26.61;30.66
6851;BME280;3464;42.728;23.296;2024-03-17T05:56:01;95538.73;;;26.41;30.79
6851;BME280;3464;42.728;23.296;2024-03-17T05:58:27;95543.60;;;28.50;28.97
6851;BME280;3464;42.728;23.296;2024-03-17T06:00:54;95546.23;;;29.16;28.06
6851;BME280;3464;42.728;23.296;2024-03-17T06:03:20;95548.69;;;30.36;27.18
6851;BME280;3464;42.728;23.296;2024-03-17T06:05:47;95540.23;;;29.57;27.48
6851;BME280;3464;42.728;23.296;2024-03-17T06:08:14;95543.95;;;30.42;26.68
6851;BME280;3464;42.728;23.296;2024-03-17T06:10:45;95551.77;;;30.49;26.60
6851;BME280;3464;42.728;23.296;2024-03-17T06:13:11;95553.20;;;30.46;26.41
6851;BME280;3464;42.728;23.296;2024-03-17T06:15:39;95548.17;;;32.74;24.77
6851;BME280;3464;42.728;23.296;2024-03-17T06:18:05;95552.78;;;32.17;24.28
6851;BME280;3464;42.728;23.296;2024-03-17T06:20:31;95561.36;;;29.51;26.24
6851;BME280;3464;42.728;23.296;2024-03-17T06:22:58;95557.34;;;29.75;26.74
6851;BME280;3464;42.728;23.296;2024-03-17T06:25:25;95560.31;;;30.44;25.56
6851;BME280;3464;42.728;23.296;2024-03-17T06:27:51;95558.29;;;31.00;25.25
6851;BME280;3464;42.728;23.296;2024-03-17T06:30:18;95560.31;;;31.22;25.50
6851;BME280;3464;42.728;23.296;2024-03-17T06:32:45;95574.27;;;29.45;26.98
6851;BME280;3464;42.728;23.296;2024-03-17T06:35:12;95569.29;;;30.12;26.22
6851;BME280;3464;42.728;23.296;2024-03-17T06:37:39;95572.31;;;29.14;27.20
6851;BME280;3464;42.728;23.296;2024-03-17T06:40:07;95566.95;;;31.07;25.48
6851;BME280;3464;42.728;23.296;2024-03-17T06:42:38;95582.55;;;29.58;26.58
6851;BME280;3464;42.728;23.296;2024-03-17T06:45:05;95567.25;;;31.60;25.09
6851;BME280;3464;42.728;23.296;2024-03-17T06:47:32;95571.50;;;30.95;25.46
6851;BME280;3464;42.728;23.296;2024-03-17T06:49:58;95576.88;;;30.55;25.88
6851;BME280;3464;42.728;23.296;2024-03-17T06:52:25;95571.14;;;30.77;25.29
6851;BME280;3464;42.728;23.296;2024-03-17T06:54:51;95573.80;;;31.34;25.07
6851;BME280;3464;42.728;23.296;2024-03-17T06:57:18;95572.72;;;32.05;24.35
6851;BME280;3464;42.728;23.296;2024-03-17T06:59:45;95571.60;;;32.27;24.47
6851;BME280;3464;42.728;23.296;2024-03-17T07:02:11;95575.05;;;30.24;25.79
6851;BME280;3464;42.728;23.296;2024-03-17T07:04:38;95575.86;;;27.74;28.29
6851;BME280;3464;42.728;23.296;2024-03-17T07:07:04;95582.66;;;27.19;29.46
6851;BME280;3464;42.728;23.296;2024-03-17T07:09:31;95575.61;;;27.79;28.83
6851;BME280;3464;42.728;23.296;2024-03-17T07:11:58;95585.39;;;26.55;30.48
6851;BME280;3464;42.728;23.296;2024-03-17T07:14:25;95585.39;;;26.20;30.52
6851;BME280;3464;42.728;23.296;2024-03-17T07:16:52;95588.22;;;25.29;31.46
6851;BME280;3464;42.728;23.296;2024-03-17T07:19:18;95583.52;;;25.09;31.81
6851;BME280;3464;42.728;23.296;2024-03-17T07:21:45;95588.48;;;24.62;32.59
6851;BME280;3464;42.728;23.296;2024-03-17T07:24:11;95587.80;;;24.89;32.56
6851;BME280;3464;42.728;23.296;2024-03-17T07:26:39;95589.84;;;24.49;32.95
6851;BME280;3464;42.728;23.296;2024-03-17T07:29:06;95594.47;;;25.91;31.25
6851;BME280;3464;42.728;23.296;2024-03-17T07:31:34;95595.44;;;24.28;33.09
6851;BME280;3464;42.728;23.296;2024-03-17T07:34:01;95589.14;;;24.35;33.15
6851;BME280;3464;42.728;23.296;2024-03-17T07:36:27;95601.52;;;23.81;33.52
6851;BME280;3464;42.728;23.296;2024-03-17T07:38:54;95591.94;;;24.61;32.92
6851;BME280;3464;42.728;23.296;2024-03-17T07:41:20;95602.28;;;25.32;32.06
6851;BME280;3464;42.728;23.296;2024-03-17T07:43:47;95606.20;;;23.81;33.63
6851;BME280;3464;42.728;23.296;2024-03-17T07:46:23;95603.63;;;24.16;33.49
6851;BME280;3464;42.728;23.296;2024-03-17T07:48:50;95602.47;;;24.12;33.48
6851;BME280;3464;42.728;23.296;2024-03-17T07:51:16;95597.63;;;23.82;34.08
6851;BME280;3464;42.728;23.296;2024-03-17T07:53:44;95599.64;;;23.98;34.18
6851;BME280;3464;42.728;23.296;2024-03-17T07:56:12;95595.64;;;24.44;33.40
6851;BME280;3464;42.728;23.296;2024-03-17T07:58:39;95593.01;;;24.77;32.54
6851;BME280;3464;42.728;23.296;2024-03-17T08:01:08;95577.00;;;24.28;33.24
6851;BME280;3464;42.728;23.296;2024-03-17T08:03:34;95574.83;;;25.11;32.65
6851;BME280;3464;42.728;23.296;2024-03-17T08:06:00;95584.51;;;24.12;33.92
6851;BME280;3464;42.728;23.296;2024-03-17T08:08:26;95584.23;;;24.18;33.96
6851;BME280;3464;42.728;23.296;2024-03-17T08:10:53;95575.20;;;24.61;33.61
6851;BME280;3464;42.728;23.296;2024-03-17T08:13:21;95584.98;;;25.73;32.24
6851;BME280;3464;42.728;23.296;2024-03-17T08:15:55;95582.16;;;25.22;32.74
6851;BME280;3464;42.728;23.296;2024-03-17T08:18:14;95582.84;;;26.72;30.99
6851;BME280;3464;42.728;23.296;2024-03-17T08:20:41;95573.13;;;27.19;30.46
6851;BME280;3464;42.728;23.296;2024-03-17T08:23:07;95575.26;;;27.29;30.27
6851;BME280;3464;42.728;23.296;2024-03-17T08:25:34;95571.13;;;27.16;30.88
6851;BME280;3464;42.728;23.296;2024-03-17T08:28:01;95581.41;;;27.59;30.14
6851;BME280;3464;42.728;23.296;2024-03-17T08:30:27;95573.20;;;26.49;30.69
6851;BME280;3464;42.728;23.296;2024-03-17T08:32:54;95567.54;;;28.31;29.21
6851;BME280;3464;42.728;23.296;2024-03-17T08:35:20;95564.14;;;27.01;30.17
6851;BME280;3464;42.728;23.296;2024-03-17T08:37:47;95562.81;;;26.85;30.71
6851;BME280;3464;42.728;23.296;2024-03-17T08:40:13;95564.18;;;27.42;30.33
6851;BME280;3464;42.728;23.296;2024-03-17T08:42:40;95558.03;;;27.53;29.83
6851;BME280;3464;42.728;23.296;2024-03-17T08:45:07;95549.17;;;26.48;31.14
6851;BME280;3464;42.728;23.296;2024-03-17T08:47:33;95545.27;;;27.26;30.52
6851;BME280;3464;42.728;23.296;2024-03-17T08:50:01;95551.47;;;27.39;30.14
6851;BME280;3464;42.728;23.296;2024-03-17T08:52:27;95542.39;;;26.98;30.98
6851;BME280;3464;42.728;23.296;2024-03-17T08:54:54;95540.58;;;26.74;31.46
6851;BME280;3464;42.728;23.296;2024-03-17T08:57:21;95529.91;;;28.17;29.90
6851;BME280;3464;42.728;23.296;2024-03-17T08:59:48;95532.73;;;28.14;29.83
6851;BME280;3464;42.728;23.296;2024-03-17T09:02:15;95530.72;;;27.15;30.90
6851;BME280;3464;42.728;23.296;2024-03-17T09:04:41;95531.35;;;28.15;29.82
6851;BME280;3464;42.728;23.296;2024-03-17T09:07:08;95528.36;;;28.82;28.73
6851;BME280;3464;42.728;23.296;2024-03-17T09:12:28;95518.84;;;27.52;30.00
6851;BME280;3464;42.728;23.296;2024-03-17T09:18:18;95511.67;;;28.94;28.93
6851;BME280;3464;42.728;23.296;2024-03-17T09:20:45;95519.00;;;26.05;31.56
6851;BME280;3464;42.728;23.296;2024-03-17T09:23:12;95511.80;;;27.06;30.51
6851;BME280;3464;42.728;23.296;2024-03-17T09:25:38;95514.10;;;27.19;30.56
6851;BME280;3464;42.728;23.296;2024-03-17T09:28:05;95509.64;;;26.81;30.77
6851;BME280;3464;42.728;23.296;2024-03-17T09:30:32;95494.21;;;27.69;30.17
6851;BME280;3464;42.728;23.296;2024-03-17T09:32:59;95493.20;;;28.56;29.56
6851;BME280;3464;42.728;23.296;2024-03-17T09:35:26;95494.43;;;28.57;29.45
6851;BME280;3464;42.728;23.296;2024-03-17T09:37:54;95496.35;;;27.05;30.12
6851;BME280;3464;42.728;23.296;2024-03-17T09:40:24;95490.34;;;27.84;29.43
6851;BME280;3464;42.728;23.296;2024-03-17T09:42:53;95493.00;;;29.66;27.88
6851;BME280;3464;42.728;23.296;2024-03-17T09:55:01;95496.70;;;28.25;28.52
6851;BME280;3464;42.728;23.296;2024-03-17T09:57:25;95499.21;;;26.83;29.38
6851;BME280;3464;42.728;23.296;2024-03-17T09:59:58;95495.30;;;27.41;29.35
6851;BME280;3464;42.728;23.296;2024-03-17T10:05:25;95497.03;;;27.49;29.58
6851;BME280;3464;42.728;23.296;2024-03-17T10:31:01;95489.08;;;28.60;27.36
6851;BME280;3464;42.728;23.296;2024-03-17T10:33:37;95490.23;;;27.79;28.15
6851;BME280;3464;42.728;23.296;2024-03-17T10:36:06;95485.66;;;28.14;27.90
6851;BME280;3464;42.728;23.296;2024-03-17T10:38:34;95489.37;;;29.06;27.23
6851;BME280;3464;42.728;23.296;2024-03-17T10:43:44;95483.92;;;27.68;28.56
6851;BME280;3464;42.728;23.296;2024-03-17T10:46:22;95486.02;;;27.21;29.25
6851;BME280;3464;42.728;23.296;2024-03-17T10:48:57;95482.47;;;28.98;27.80
6851;BME280;3464;42.728;23.296;2024-03-17T10:51:28;95472.72;;;30.06;26.50
6851;BME280;3464;42.728;23.296;2024-03-17T10:54:09;95475.14;;;30.28;26.46
6851;BME280;3464;42.728;23.296;2024-03-17T11:03:10;95458.21;;;30.16;26.31
6851;BME280;3464;42.728;23.296;2024-03-17T11:05:37;95464.28;;;28.04;27.67
6851;BME280;3464;42.728;23.296;2024-03-17T11:08:04;95466.56;;;28.24;27.28
6851;BME280;3464;42.728;23.296;2024-03-17T11:10:41;95461.22;;;27.57;27.67
6851;BME280;3464;42.728;23.296;2024-03-17T11:13:12;95463.30;;;28.28;26.98
6851;BME280;3464;42.728;23.296;2024-03-17T11:15:35;95462.84;;;27.75;26.70
6851;BME280;3464;42.728;23.296;2024-03-17T11:21:00;95456.16;;;28.98;24.90
6851;BME280;3464;42.728;23.296;2024-03-17T11:23:27;95426.81;;;28.97;24.74
6851;BME280;3464;42.728;23.296;2024-03-17T11:25:53;95453.99;;;29.26;24.43
6851;BME280;3464;42.728;23.296;2024-03-17T11:28:51;95453.12;;;28.69;24.77
6851;BME280;3464;42.728;23.296;2024-03-17T11:31:01;95445.32;;;29.47;24.07
6851;BME280;3464;42.728;23.296;2024-03-17T11:33:46;95448.76;;;29.34;24.35
6851;BME280;3464;42.728;23.296;2024-03-17T11:36:35;95443.75;;;28.45;25.39
6851;BME280;3464;42.728;23.296;2024-03-17T11:39:02;95450.13;;;28.02;26.27
6851;BME280;3464;42.728;23.296;2024-03-17T11:41:40;95443.45;;;28.72;25.68
6851;BME280;3464;42.728;23.296;2024-03-17T11:44:25;95439.69;;;27.57;25.90
6851;BME280;3464;42.728;23.296;2024-03-17T11:47:01;95444.78;;;26.44;27.19
6851;BME280;3464;42.728;23.296;2024-03-17T11:49:29;95439.55;;;27.98;25.80
6851;BME280;3464;42.728;23.296;2024-03-17T11:51:55;95440.72;;;26.57;26.79
6851;BME280;3464;42.728;23.296;2024-03-17T11:54:37;95435.47;;;26.92;26.93
6851;BME280;3464;42.728;23.296;2024-03-17T11:57:05;95427.47;;;27.91;26.30
6851;BME280;3464;42.728;23.296;2024-03-17T11:59:32;95439.20;;;27.27;26.17
6851;BME280;3464;42.728;23.296;2024-03-17T12:01:59;95438.55;;;28.53;25.64
6851;BME280;3464;42.728;23.296;2024-03-17T12:04:25;95435.95;;;27.62;26.19
6851;BME280;3464;42.728;23.296;2024-03-17T12:06:54;95441.03;;;27.33;26.18
6851;BME280;3464;42.728;23.296;2024-03-17T12:09:27;95431.80;;;26.96;27.04
6851;BME280;3464;42.728;23.296;2024-03-17T12:12:10;95432.72;;;27.11;27.47
6851;BME280;3464;42.728;23.296;2024-03-17T12:14:36;95433.29;;;26.42;28.38
6851;BME280;3464;42.728;23.296;2024-03-17T12:17:03;95425.69;;;26.81;28.37
6851;BME280;3464;42.728;23.296;2024-03-17T12:19:29;95431.17;;;26.75;28.34
6851;BME280;3464;42.728;23.296;2024-03-17T12:21:56;95425.50;;;26.76;28.90
6851;BME280;3464;42.728;23.296;2024-03-17T12:24:23;95434.48;;;26.19;29.29
6851;BME280;3464;42.728;23.296;2024-03-17T12:26:50;95414.31;;;27.33;28.19
6851;BME280;3464;42.728;23.296;2024-03-17T12:29:26;95429.77;;;27.73;28.24
6851;BME280;3464;42.728;23.296;2024-03-17T12:31:52;95436.42;;;26.31;29.89
6851;BME280;3464;42.728;23.296;2024-03-17T12:34:19;95428.76;;;27.36;29.10
6851;BME280;3464;42.728;23.296;2024-03-17T12:36:45;95430.17;;;27.02;29.18
6851;BME280;3464;42.728;23.296;2024-03-17T12:39:18;95424.90;;;25.32;31.61
6851;BME280;3464;42.728;23.296;2024-03-17T12:41:44;95419.25;;;25.42;31.85
6851;BME280;3464;42.728;23.296;2024-03-17T12:44:21;95419.25;;;27.68;29.72
6851;BME280;3464;42.728;23.296;2024-03-17T12:46:48;95419.92;;;27.01;30.46
6851;BME280;3464;42.728;23.296;2024-03-17T12:49:17;95418.82;;;27.99;28.97
6851;BME280;3464;42.728;23.296;2024-03-17T12:51:44;95421.30;;;27.15;29.57
6851;BME280;3464;42.728;23.296;2024-03-17T12:54:13;95416.20;;;27.13;29.77
6851;BME280;3464;42.728;23.296;2024-03-17T12:56:40;95416.33;;;27.58;28.87
6851;BME280;3464;42.728;23.296;2024-03-17T12:59:12;95425.45;;;25.65;31.16
6851;BME280;3464;42.728;23.296;2024-03-17T13:04:43;95419.66;;;25.15;31.75
6851;BME280;3464;42.728;23.296;2024-03-17T13:07:31;95421.39;;;26.13;30.84
6851;BME280;3464;42.728;23.296;2024-03-17T13:09:57;95411.88;;;26.32;30.75
6851;BME280;3464;42.728;23.296;2024-03-17T13:19:18;95412.09;;;27.34;30.22
6851;BME280;3464;42.728;23.296;2024-03-17T13:25:02;95409.23;;;26.25;31.09
6851;BME280;3464;42.728;23.296;2024-03-17T13:27:32;95412.30;;;26.06;31.70
6851;BME280;3464;42.728;23.296;2024-03-17T13:39:28;95414.21;;;25.84;32.34
6851;BME280;3464;42.728;23.296;2024-03-17T13:41:50;95413.78;;;25.75;32.57
6851;BME280;3464;42.728;23.296;2024-03-17T13:44:16;95408.34;;;26.08;31.85
6851;BME280;3464;42.728;23.296;2024-03-17T13:46:43;95408.26;;;25.47;32.88
6851;BME280;3464;42.728;23.296;2024-03-17T13:49:10;95404.09;;;25.72;32.42
6851;BME280;3464;42.728;23.296;2024-03-17T13:51:37;95396.50;;;25.23;33.45
6851;BME280;3464;42.728;23.296;2024-03-17T13:54:04;95399.52;;;25.51;33.32
6851;BME280;3464;42.728;23.296;2024-03-17T13:56:30;95400.24;;;24.79;33.90
6851;BME280;3464;42.728;23.296;2024-03-17T14:02:02;95395.18;;;26.30;32.37
6851;BME280;3464;42.728;23.296;2024-03-17T14:04:29;95385.79;;;26.62;31.95
6851;BME280;3464;42.728;23.296;2024-03-17T14:06:56;95395.56;;;25.79;32.69
6851;BME280;3464;42.728;23.296;2024-03-17T14:09:22;95398.09;;;25.62;32.94
6851;BME280;3464;42.728;23.296;2024-03-17T14:11:49;95390.70;;;25.46;33.24
6851;BME280;3464;42.728;23.296;2024-03-17T14:14:15;95392.00;;;25.64;33.30
6851;BME280;3464;42.728;23.296;2024-03-17T14:16:42;95387.33;;;25.72;33.05
6851;BME280;3464;42.728;23.296;2024-03-17T14:19:08;95385.79;;;26.62;32.24
6851;BME280;3464;42.728;23.296;2024-03-17T14:21:36;95387.41;;;25.34;33.84
6851;BME280;3464;42.728;23.296;2024-03-17T14:24:02;95385.66;;;25.35;33.62
6851;BME280;3464;42.728;23.296;2024-03-17T14:26:29;95385.26;;;25.25;34.18
6851;BME280;3464;42.728;23.296;2024-03-17T14:28:56;95383.75;;;25.11;34.18
6851;BME280;3464;42.728;23.296;2024-03-17T14:31:22;95370.22;;;25.52;33.79
6851;BME280;3464;42.728;23.296;2024-03-17T14:33:49;95375.53;;;25.58;33.91
6851;BME280;3464;42.728;23.296;2024-03-17T14:36:15;95378.97;;;25.12;34.31